Time;durP1;ratioP1;P1;durP2;ratioP2;P2;SDS_P1;SDS_P2;PMS_P1;PMS_P2;Temp;Humidity;BMP_temperature;BMP_pressure;BME280_temperature;BME280_humidity;BME280_pressure;Samples;Min_cycle;Max_cycle;Signal;HPM_P1;HPM_P2
2023/01/20 00:00:41;;;;;;;;;;;;;;;28.18;61.87;101065.84;5080373;27;68345;-37
2023/01/20 00:03:11;;;;;;;;;;;;;;;28.21;61.72;101064.63;5087401;27;65952;-36
2023/01/20 00:05:51;;;;;;;;;;;;;;;28.24;62.20;101080.41;5087632;27;69744;-36
2023/01/20 00:08:22;;;;;;;;;;;;;;;28.26;61.95;101089.16;5081967;27;66361;-37
2023/01/20 00:10:52;;;;;;;;;;;;;;;28.28;62.10;101084.41;5081992;27;70682;-35
2023/01/20 00:13:23;;;;;;;;;;;;;;;28.29;62.07;101083.38;5081745;27;66659;-36
2023/01/20 00:15:54;;;;;;;;;;;;;;;28.31;62.01;101091.28;5071660;28;69106;-36
2023/01/20 00:18:24;;;;;;;;;;;;;;;28.32;62.05;101088.34;5079400;27;66095;-36
2023/01/20 00:20:55;;;;;;;;;;;;;;;28.32;61.97;101088.34;5084507;27;69030;-36
2023/01/20 00:23:25;;;;;;;;;;;;;;;28.36;61.97;101088.78;5084213;27;66007;-37
2023/01/20 00:25:56;;;;;;;;;;;;;;;28.37;62.54;101099.41;5062640;27;70813;-36
2023/01/20 00:28:26;;;;;;;;;;;;;;;28.39;62.67;101094.63;5085193;27;65900;-38
2023/01/20 00:30:56;;;;;;;;;;;;;;;28.41;62.42;101097.94;5073365;27;69339;-36
2023/01/20 00:33:27;;;;;;;;;;;;;;;28.33;60.33;101100.81;5051066;27;66424;-36
2023/01/20 00:35:57;;;;;;;;;;;;;;;28.17;61.46;101109.22;5082901;27;69863;-36
2023/01/20 00:38:28;;;;;;;;;;;;;;;28.20;62.15;101111.53;5084513;27;66850;-39
2023/01/20 00:40:58;;;;;;;;;;;;;;;28.25;62.88;101114.44;5081424;27;69932;-34
2023/01/20 00:43:29;;;;;;;;;;;;;;;28.31;63.07;101119.06;5083677;27;66585;-37
2023/01/20 00:45:59;;;;;;;;;;;;;;;28.32;62.90;101128.81;5089779;27;70724;-37
2023/01/20 00:48:30;;;;;;;;;;;;;;;28.32;63.15;101131.53;5084119;27;66172;-37
2023/01/20 00:51:00;;;;;;;;;;;;;;;28.32;62.57;101142.31;5081729;27;70174;-36
2023/01/20 00:53:31;;;;;;;;;;;;;;;28.32;62.74;101136.91;5084139;27;66053;-38
2023/01/20 00:56:02;;;;;;;;;;;;;;;28.33;62.67;101141.28;5082676;27;70733;-38
2023/01/20 00:58:32;;;;;;;;;;;;;;;28.34;63.06;101140.25;5082883;27;66241;-37
2023/01/20 01:01:03;;;;;;;;;;;;;;;28.35;63.17;101151.88;5082128;27;69399;-34
2023/01/20 01:03:33;;;;;;;;;;;;;;;28.38;63.65;101156.88;5082946;27;65923;-40
2023/01/20 01:06:08;;;;;;;;;;;;;;;28.39;63.32;101154.00;5082380;27;69622;-38
2023/01/20 01:08:39;;;;;;;;;;;;;;;28.41;63.60;101153.78;5080526;27;65505;-35
2023/01/20 01:11:10;;;;;;;;;;;;;;;28.43;64.18;101154.47;5083403;27;70161;-37
2023/01/20 01:13:41;;;;;;;;;;;;;;;28.44;63.87;101156.94;5083440;27;65545;-37
2023/01/20 01:16:13;;;;;;;;;;;;;;;28.46;64.18;101164.84;5079392;27;71012;-35
2023/01/20 01:18:43;;;;;;;;;;;;;;;28.46;63.99;101167.56;5069182;27;66488;-36
2023/01/20 01:21:15;;;;;;;;;;;;;;;28.48;63.96;101166.34;5084853;27;69225;-35
2023/01/20 01:23:46;;;;;;;;;;;;;;;28.50;64.41;101176.91;5085653;27;66095;-35
2023/01/20 01:26:16;;;;;;;;;;;;;;;28.54;63.94;101177.38;5083358;27;68907;-35
2023/01/20 01:28:47;;;;;;;;;;;;;;;28.56;64.05;101191.50;5083210;27;65958;-36
2023/01/20 01:31:20;;;;;;;;;;;;;;;28.58;64.65;101195.66;5079288;27;70282;-36
2023/01/20 01:33:51;;;;;;;;;;;;;;;28.58;64.38;101184.03;5081858;27;66749;-35
2023/01/20 01:36:22;;;;;;;;;;;;;;;28.60;64.66;101181.97;5082917;27;70195;-35
2023/01/20 01:38:52;;;;;;;;;;;;;;;28.61;65.19;101178.22;5078721;27;65289;-34
2023/01/20 01:41:27;;;;;;;;;;;;;;;28.62;64.61;101186.16;5077873;28;71086;-36
2023/01/20 01:44:08;;;;;;;;;;;;;;;28.63;64.72;101195.91;5079138;27;66025;-35
2023/01/20 01:46:40;;;;;;;;;;;;;;;28.66;65.13;101191.97;5075774;27;70052;-34
2023/01/20 01:49:16;;;;;;;;;;;;;;;28.66;64.95;101182.00;5079538;27;66951;-41
2023/01/20 01:51:55;;;;;;;;;;;;;;;28.70;64.85;101182.47;5080011;27;70399;-36
2023/01/20 01:54:28;;;;;;;;;;;;;;;28.72;65.10;101185.78;5080346;27;66493;-35
2023/01/20 01:56:59;;;;;;;;;;;;;;;28.73;65.04;101176.66;5078899;27;70276;-39
2023/01/20 01:59:30;;;;;;;;;;;;;;;28.72;65.73;101183.06;5060962;28;66689;-35
2023/01/20 02:02:01;;;;;;;;;;;;;;;28.74;65.33;101184.56;5070848;27;70435;-34
2023/01/20 02:04:33;;;;;;;;;;;;;;;28.76;64.78;101191.63;5045496;27;67054;-34
2023/01/20 02:07:07;;;;;;;;;;;;;;;28.76;64.84;101192.47;5083296;27;69290;-34
2023/01/20 02:09:38;;;;;;;;;;;;;;;28.81;65.58;101200.81;5075106;27;66729;-36
2023/01/20 02:12:11;;;;;;;;;;;;;;;28.81;64.54;101203.50;5084367;27;70099;-34
2023/01/20 02:14:45;;;;;;;;;;;;;;;28.80;63.59;101206.38;5082311;27;66197;-33
2023/01/20 02:17:15;;;;;;;;;;;;;;;28.77;63.10;101199.53;5072473;27;68681;-35
2023/01/20 02:20:04;;;;;;;;;;;;;;;28.81;63.16;101211.59;5075663;27;66344;-35
2023/01/20 02:22:45;;;;;;;;;;;;;;;28.86;62.81;101202.88;5079293;27;71377;-34
2023/01/20 02:25:24;;;;;;;;;;;;;;;28.90;62.71;101202.31;5083412;27;66025;-34
2023/01/20 02:28:03;;;;;;;;;;;;;;;28.94;62.83;101205.44;5074816;27;70329;-34
2023/01/20 02:30:52;;;;;;;;;;;;;;;28.96;62.58;101215.00;5080726;27;65603;-34
2023/01/20 02:33:22;;;;;;;;;;;;;;;29.00;62.47;101211.91;5076164;27;70915;-36
2023/01/20 02:36:04;;;;;;;;;;;;;;;29.03;61.82;101203.41;5084662;27;66953;-36
2023/01/20 02:38:43;;;;;;;;;;;;;;;29.05;61.71;101201.38;5081193;27;69769;-35
2023/01/20 02:41:25;;;;;;;;;;;;;;;29.07;62.08;101188.50;5082323;27;65340;-37
2023/01/20 02:44:09;;;;;;;;;;;;;;;29.10;61.43;101190.81;5080707;27;69471;-35
2023/01/20 02:46:45;;;;;;;;;;;;;;;29.13;61.85;101201.19;5082241;27;67185;-35
2023/01/20 02:49:19;;;;;;;;;;;;;;;29.15;61.53;101185.63;5057141;28;70047;-34
2023/01/20 02:51:52;;;;;;;;;;;;;;;29.16;61.53;101188.13;5053694;27;65608;-34
2023/01/20 02:54:25;;;;;;;;;;;;;;;29.20;61.45;101187.72;5041483;27;70397;-33
2023/01/20 02:56:58;;;;;;;;;;;;;;;29.20;61.27;101183.16;5078783;27;65168;-34
2023/01/20 02:59:31;;;;;;;;;;;;;;;29.22;61.23;101183.78;5088828;27;70430;-37
2023/01/20 03:02:05;;;;;;;;;;;;;;;29.24;60.61;101184.41;5069708;27;66687;-34
2023/01/20 03:04:40;;;;;;;;;;;;;;;29.26;61.21;101193.16;5073059;27;70415;-35
2023/01/20 03:07:12;;;;;;;;;;;;;;;29.28;60.90;101185.69;5083274;27;66776;-34
2023/01/20 03:09:46;;;;;;;;;;;;;;;29.30;61.08;101180.91;5066261;27;70498;-36
2023/01/20 03:12:30;;;;;;;;;;;;;;;29.32;60.49;101181.53;5065650;27;67014;-35
2023/01/20 03:15:00;;;;;;;;;;;;;;;29.34;60.50;101187.56;5067456;28;70141;-34
2023/01/20 03:17:31;;;;;;;;;;;;;;;29.36;61.00;101184.66;5068530;27;65366;-34
2023/01/20 03:20:03;;;;;;;;;;;;;;;29.36;60.41;101182.81;5079068;27;70219;-36
2023/01/20 03:22:33;;;;;;;;;;;;;;;29.40;60.87;101183.22;5082012;27;66087;-40
2023/01/20 03:25:04;;;;;;;;;;;;;;;29.33;60.71;101188.59;5074677;27;71206;-36
2023/01/20 03:27:34;;;;;;;;;;;;;;;29.27;61.47;101189.41;5076417;27;66407;-36
2023/01/20 03:30:11;;;;;;;;;;;;;;;29.23;62.08;101188.16;5080148;27;70272;-35
2023/01/20 03:32:47;;;;;;;;;;;;;;;29.21;62.27;101179.41;5065302;27;65201;-38
2023/01/20 03:35:18;;;;;;;;;;;;;;;29.20;62.02;101177.75;5071212;27;70366;-35
2023/01/20 03:37:49;;;;;;;;;;;;;;;29.20;62.74;101183.16;5080226;27;66349;-34
2023/01/20 03:40:21;;;;;;;;;;;;;;;29.22;62.16;101175.66;5078323;27;69774;-34
2023/01/20 03:42:54;;;;;;;;;;;;;;;29.20;62.48;101166.97;5081988;27;65193;-33
2023/01/20 03:45:38;;;;;;;;;;;;;;;29.23;62.81;101165.72;5062970;27;69188;-35
2023/01/20 03:48:30;;;;;;;;;;;;;;;29.23;62.87;101165.72;5078590;27;66385;-35
2023/01/20 03:51:07;;;;;;;;;;;;;;;29.24;62.90;101165.50;5080449;27;69288;-33
2023/01/20 03:53:44;;;;;;;;;;;;;;;29.23;63.08;101155.75;5081987;27;66143;-34
2023/01/20 03:56:34;;;;;;;;;;;;;;;29.24;62.91;101153.88;5076914;27;69149;-33
2023/01/20 03:59:06;;;;;;;;;;;;;;;29.26;63.00;101149.94;5071609;27;66135;-34
2023/01/20 04:01:38;;;;;;;;;;;;;;;29.26;62.62;101158.03;5079281;27;69026;-34
2023/01/20 04:04:10;;;;;;;;;;;;;;;28.79;63.26;101083.25;5079410;27;66554;-33
2023/01/20 04:06:42;;;;;;;;;;;;;;;29.30;62.72;101145.78;5077255;27;70599;-34
2023/01/20 04:09:23;;;;;;;;;;;;;;;29.39;62.81;101144.56;5052756;27;65489;-34
2023/01/20 04:11:54;;;;;;;;;;;;;;;29.47;62.08;101137.28;5060800;27;70981;-35
2023/01/20 04:14:24;;;;;;;;;;;;;;;29.55;62.14;101142.50;5076676;27;65779;-35
2023/01/20 04:16:56;;;;;;;;;;;;;;;29.60;62.15;101130.03;5080860;27;70817;-35
2023/01/20 04:19:26;;;;;;;;;;;;;;;29.66;61.90;101123.00;5078302;27;66739;-35
2023/01/20 04:22:00;;;;;;;;;;;;;;;29.70;61.67;101126.97;5078367;27;70234;-35
2023/01/20 04:24:34;;;;;;;;;;;;;;;29.75;60.92;101121.75;5081967;27;65787;-34
2023/01/20 04:27:04;;;;;;;;;;;;;;;29.79;61.40;101122.19;5082164;27;70010;-35
2023/01/20 04:29:36;;;;;;;;;;;;;;;29.75;61.01;101118.22;5061813;28;67725;-34
2023/01/20 04:32:07;;;;;;;;;;;;;;;29.67;61.19;101108.47;5079639;27;69888;-35
2023/01/20 04:34:37;;;;;;;;;;;;;;;29.64;60.82;101097.22;5080804;27;65541;-35
2023/01/20 04:37:08;;;;;;;;;;;;;;;29.61;60.99;101093.03;5087031;27;70985;-37
2023/01/20 04:39:38;;;;;;;;;;;;;;;29.59;61.49;101093.25;5079867;27;66167;-34
2023/01/20 04:42:09;;;;;;;;;;;;;;;29.59;61.05;101084.31;5088018;27;70683;-34
2023/01/20 04:44:40;;;;;;;;;;;;;;;29.59;61.53;101078.91;5079451;27;67358;-34
2023/01/20 04:47:10;;;;;;;;;;;;;;;29.61;61.23;101076.81;5065016;28;70453;-34
2023/01/20 04:49:41;;;;;;;;;;;;;;;29.59;61.39;101074.31;5084223;27;66196;-33
2023/01/20 04:52:11;;;;;;;;;;;;;;;29.62;61.14;101079.31;5082211;27;69818;-34
2023/01/20 04:54:42;;;;;;;;;;;;;;;29.62;61.34;101067.69;5086172;27;66518;-35
2023/01/20 04:57:12;;;;;;;;;;;;;;;29.65;61.13;101061.06;5066060;27;69171;-34
2023/01/20 04:59:43;;;;;;;;;;;;;;;29.66;61.22;101063.53;5088815;27;66024;-34
2023/01/20 05:02:13;;;;;;;;;;;;;;;29.67;61.73;101059.81;5063846;27;69407;-34
2023/01/20 05:04:44;;;;;;;;;;;;;;;29.72;61.22;101067.28;5082738;27;65571;-35
2023/01/20 05:07:14;;;;;;;;;;;;;;;29.71;61.69;101069.16;5076757;27;69114;-34
2023/01/20 05:09:45;;;;;;;;;;;;;;;29.72;61.44;101060.00;5081658;27;65692;-34
2023/01/20 05:12:16;;;;;;;;;;;;;;;29.74;61.27;101057.91;5075935;27;71294;-36
2023/01/20 05:14:46;;;;;;;;;;;;;;;29.77;61.86;101046.69;5080538;27;65274;-33
2023/01/20 05:17:16;;;;;;;;;;;;;;;29.83;60.94;101039.59;5079051;27;70581;-33
2023/01/20 05:19:47;;;;;;;;;;;;;;;29.93;61.42;101031.91;5078742;27;65602;-35
2023/01/20 05:22:17;;;;;;;;;;;;;;;30.02;60.77;101030.63;5077071;27;70246;-34
2023/01/20 05:24:48;;;;;;;;;;;;;;;30.10;61.23;101032.28;5075654;27;65758;-36
2023/01/20 05:27:18;;;;;;;;;;;;;;;30.08;60.35;101028.97;5083872;27;69931;-33
2023/01/20 05:29:49;;;;;;;;;;;;;;;30.07;61.10;101021.91;5064074;28;67114;-34
2023/01/20 05:32:19;;;;;;;;;;;;;;;30.06;60.94;101018.38;5077922;27;70334;-33
2023/01/20 05:34:50;;;;;;;;;;;;;;;30.08;61.33;101014.59;5078304;27;66621;-35
2023/01/20 05:37:20;;;;;;;;;;;;;;;30.09;61.95;101021.66;5063608;28;69893;-34
2023/01/20 05:39:51;;;;;;;;;;;;;;;30.08;61.40;101007.31;5078132;28;66656;-32
2023/01/20 05:42:21;;;;;;;;;;;;;;;30.10;61.37;100996.28;5084826;27;70171;-34
2023/01/20 05:44:52;;;;;;;;;;;;;;;30.14;62.23;100986.69;5081132;27;64740;-33
2023/01/20 05:47:23;;;;;;;;;;;;;;;30.15;62.36;100993.78;5080266;27;70374;-33
2023/01/20 05:49:53;;;;;;;;;;;;;;;30.18;62.09;100980.66;5080717;27;66621;-33
2023/01/20 05:52:24;;;;;;;;;;;;;;;30.18;62.34;100980.66;5072574;27;70724;-35
2023/01/20 05:54:54;;;;;;;;;;;;;;;30.21;62.46;100974.81;5064534;27;67125;-33
2023/01/20 05:57:26;;;;;;;;;;;;;;;30.25;62.79;100975.25;5076601;27;69861;-35
2023/01/20 05:59:56;;;;;;;;;;;;;;;30.24;62.83;100951.94;5064044;27;66512;-33
2023/01/20 06:02:29;;;;;;;;;;;;;;;30.27;62.53;100952.34;5080869;27;70874;-34
2023/01/20 06:05:00;;;;;;;;;;;;;;;30.30;62.59;100950.25;5079659;27;66803;-36
2023/01/20 06:07:31;;;;;;;;;;;;;;;30.31;62.56;100946.50;5079389;27;70050;-38
2023/01/20 06:10:02;;;;;;;;;;;;;;;30.33;62.53;100944.41;5066828;28;67761;-33
2023/01/20 06:12:32;;;;;;;;;;;;;;;30.34;63.10;100933.38;5077857;28;71279;-35
2023/01/20 06:15:04;;;;;;;;;;;;;;;30.36;63.13;100930.44;5085081;27;66091;-35
2023/01/20 06:17:34;;;;;;;;;;;;;;;30.37;62.53;100923.97;5080447;27;69681;-33
2023/01/20 06:20:05;;;;;;;;;;;;;;;30.39;63.01;100932.72;5083536;27;66771;-34
2023/01/20 06:22:36;;;;;;;;;;;;;;;30.41;62.55;100925.22;5082155;27;69969;-34
2023/01/20 06:25:06;;;;;;;;;;;;;;;30.41;63.05;100919.81;5081587;27;66593;-34
2023/01/20 06:27:36;;;;;;;;;;;;;;;30.42;63.13;100911.50;5084457;27;71371;-35
2023/01/20 06:30:08;;;;;;;;;;;;;;;30.44;63.10;100903.13;5070895;27;65336;-34
2023/01/20 06:32:38;;;;;;;;;;;;;;;30.46;63.19;100906.47;5077557;27;70914;-34
2023/01/20 06:35:09;;;;;;;;;;;;;;;30.46;63.13;100895.63;5079502;27;66999;-34
2023/01/20 06:37:39;;;;;;;;;;;;;;;30.48;63.43;100890.84;5079443;27;70055;-35
2023/01/20 06:40:10;;;;;;;;;;;;;;;30.50;63.54;100889.56;5082324;27;66926;-34
2023/01/20 06:42:41;;;;;;;;;;;;;;;30.50;63.47;100884.13;5081952;27;69839;-35
2023/01/20 06:45:11;;;;;;;;;;;;;;;30.51;63.48;100868.75;5074869;27;66146;-34
2023/01/20 06:47:43;;;;;;;;;;;;;;;30.53;63.24;100880.16;5085691;27;69224;-35
2023/01/20 06:50:14;;;;;;;;;;;;;;;30.55;63.61;100867.25;5080494;27;67084;-35
2023/01/20 06:52:44;;;;;;;;;;;;;;;30.57;63.55;100854.34;5086173;27;70166;-34
2023/01/20 06:55:15;;;;;;;;;;;;;;;30.59;63.56;100860.38;5083053;27;66218;-34
2023/01/20 06:57:45;;;;;;;;;;;;;;;30.62;63.10;100845.53;5094375;27;70175;-34
2023/01/20 07:00:16;;;;;;;;;;;;;;;30.63;63.07;100841.81;5082356;27;66006;-34
2023/01/20 07:02:47;;;;;;;;;;;;;;;30.65;63.15;100837.00;5090405;27;71108;-34
2023/01/20 07:05:18;;;;;;;;;;;;;;;30.67;63.42;100833.03;5084906;27;67193;-34
2023/01/20 07:07:48;;;;;;;;;;;;;;;30.71;63.09;100836.94;5090709;27;70688;-34
2023/01/20 07:10:19;;;;;;;;;;;;;;;30.73;62.87;100829.44;5084550;27;67426;-34
2023/01/20 07:12:50;;;;;;;;;;;;;;;30.73;63.23;100832.13;5078775;27;69453;-35
2023/01/20 07:15:20;;;;;;;;;;;;;;;30.74;63.31;100827.56;5058062;28;66819;-37
2023/01/20 07:17:52;;;;;;;;;;;;;;;30.72;62.67;100830.47;5076382;27;69938;-36
2023/01/20 07:20:22;;;;;;;;;;;;;;;30.73;62.94;100832.13;5079528;27;67009;-36
2023/01/20 07:22:53;;;;;;;;;;;;;;;30.70;63.12;100826.31;5078788;27;70022;-35
2023/01/20 07:25:24;;;;;;;;;;;;;;;30.74;63.36;100819.44;5077620;27;65952;-33
2023/01/20 07:27:56;;;;;;;;;;;;;;;30.73;63.49;100815.91;5077363;27;69262;-34
2023/01/20 07:30:27;;;;;;;;;;;;;;;30.76;63.60;100813.78;5075094;27;66066;-35
2023/01/20 07:32:58;;;;;;;;;;;;;;;30.79;63.72;100813.34;5053470;28;69748;-34
2023/01/20 07:35:28;;;;;;;;;;;;;;;30.79;63.73;100811.47;5077489;27;66780;-34
2023/01/20 07:37:59;;;;;;;;;;;;;;;30.81;63.78;100811.25;5079007;27;70191;-35
2023/01/20 07:40:29;;;;;;;;;;;;;;;30.82;63.45;100812.94;5075273;27;66589;-35
2023/01/20 07:43:02;;;;;;;;;;;;;;;30.83;63.91;100809.16;5080466;27;70631;-37
2023/01/20 07:45:33;;;;;;;;;;;;;;;30.86;63.61;100808.72;5079921;27;66937;-35
2023/01/20 07:48:06;;;;;;;;;;;;;;;30.85;64.04;100812.50;5081678;27;70237;-34
2023/01/20 07:50:37;;;;;;;;;;;;;;;30.86;63.98;100808.72;5079270;27;66533;-34
2023/01/20 07:53:07;;;;;;;;;;;;;;;30.87;63.82;100804.94;5079669;27;70776;-38
2023/01/20 07:55:37;;;;;;;;;;;;;;;30.88;63.76;100795.78;5078793;27;65892;-36
2023/01/20 07:58:08;;;;;;;;;;;;;;;30.91;64.12;100796.16;5084034;27;70690;-38
2023/01/20 08:00:38;;;;;;;;;;;;;;;30.92;64.11;100795.13;5081876;27;66319;-35
2023/01/20 08:03:09;;;;;;;;;;;;;;;30.93;63.85;100788.66;5082979;27;70976;-35
2023/01/20 08:05:40;;;;;;;;;;;;;;;30.94;64.24;100797.63;5084980;27;66008;-35
2023/01/20 08:08:10;;;;;;;;;;;;;;;30.93;64.18;100787.84;5064691;28;69780;-34
2023/01/20 08:10:41;;;;;;;;;;;;;;;30.94;63.69;100781.34;5083074;27;66464;-34
2023/01/20 08:13:12;;;;;;;;;;;;;;;30.92;64.08;100778.88;5081583;27;69984;-34
2023/01/20 08:15:42;;;;;;;;;;;;;;;30.93;63.26;100779.72;5083487;27;68336;-35
2023/01/20 08:18:13;;;;;;;;;;;;;;;30.91;62.47;100784.50;5084130;27;70256;-35
2023/01/20 08:20:43;;;;;;;;;;;;;;;30.91;61.98;100779.91;5085822;27;66642;-34
2023/01/20 08:23:13;;;;;;;;;;;;;;;30.89;62.00;100771.19;5080055;28;70394;-37
2023/01/20 08:25:44;;;;;;;;;;;;;;;30.91;61.37;100779.09;5093886;27;65334;-34
2023/01/20 08:28:14;;;;;;;;;;;;;;;30.90;61.26;100777.44;5078939;27;70297;-34
2023/01/20 08:30:45;;;;;;;;;;;;;;;30.92;61.00;100780.75;5082240;27;66954;-34
2023/01/20 08:33:15;;;;;;;;;;;;;;;30.92;61.42;100775.31;5064132;27;69920;-35
2023/01/20 08:35:46;;;;;;;;;;;;;;;30.91;60.71;100781.81;5081986;28;66774;-35
2023/01/20 08:38:17;;;;;;;;;;;;;;;30.91;61.13;100789.94;5082404;27;69689;-36
2023/01/20 08:40:47;;;;;;;;;;;;;;;30.89;60.50;100786.59;5082760;27;66616;-34
2023/01/20 08:43:18;;;;;;;;;;;;;;;30.88;60.52;100801.22;5082730;27;69269;-37
2023/01/20 08:45:57;;;;;;;;;;;;;;;30.89;60.62;100802.84;5083289;27;65695;-35
2023/01/20 08:48:28;;;;;;;;;;;;;;;30.90;60.56;100799.13;5094018;27;70283;-35
2023/01/20 08:50:59;;;;;;;;;;;;;;;31.02;60.28;100801.91;5079276;27;66379;-34
2023/01/20 08:53:29;;;;;;;;;;;;;;;31.16;60.17;100806.97;5044523;27;68951;-35
2023/01/20 08:56:01;;;;;;;;;;;;;;;31.28;60.40;100801.63;5083136;27;66660;-34
2023/01/20 08:58:32;;;;;;;;;;;;;;;31.35;59.75;100802.41;5069668;27;70018;-33
2023/01/20 09:01:07;;;;;;;;;;;;;;;31.41;59.91;100803.41;5096716;27;66827;-35
2023/01/20 09:03:38;;;;;;;;;;;;;;;31.46;59.75;100809.00;5084452;27;69521;-34
2023/01/20 09:06:18;;;;;;;;;;;;;;;31.50;58.98;100807.47;5086428;27;65598;-33
2023/01/20 09:08:49;;;;;;;;;;;;;;;31.55;59.34;100812.22;5073085;28;70015;-35
2023/01/20 09:11:23;;;;;;;;;;;;;;;31.57;59.38;100815.53;5085775;27;67790;-35
2023/01/20 09:13:53;;;;;;;;;;;;;;;31.60;58.94;100812.38;5090951;27;70074;-34
2023/01/20 09:16:24;;;;;;;;;;;;;;;31.63;58.63;100813.81;5072876;28;66198;-35
2023/01/20 09:18:54;;;;;;;;;;;;;;;31.51;58.90;100806.44;5081002;27;70605;-34
2023/01/20 09:21:24;;;;;;;;;;;;;;;31.30;59.52;100815.78;5083739;27;66024;-35
2023/01/20 09:23:55;;;;;;;;;;;;;;;31.14;60.21;100817.19;5084315;27;69825;-34
2023/01/20 09:26:26;;;;;;;;;;;;;;;31.12;61.14;100813.91;5085380;27;66558;-34
2023/01/20 09:29:09;;;;;;;;;;;;;;;31.07;61.43;100821.88;5086849;27;70190;-35
2023/01/20 09:31:42;;;;;;;;;;;;;;;31.06;61.62;100825.63;5065194;27;66111;-34
2023/01/20 09:34:23;;;;;;;;;;;;;;;31.02;61.72;100824.41;5083491;27;69519;-35
2023/01/20 09:45:51;;;;;;;;;;;;;;;30.94;62.59;100838.25;5079688;27;69248;-35
2023/01/20 09:54:22;;;;;;;;;;;;;;;30.96;61.60;100829.91;5078367;27;67120;-34
2023/01/20 09:56:53;;;;;;;;;;;;;;;30.96;60.89;100830.72;5061742;28;70274;-33
2023/01/20 09:59:32;;;;;;;;;;;;;;;30.96;60.81;100824.50;5075696;28;66279;-35
2023/01/20 10:02:06;;;;;;;;;;;;;;;30.97;60.23;100831.56;5078124;27;69409;-34
2023/01/20 10:04:46;;;;;;;;;;;;;;;30.96;60.30;100836.16;5080282;27;66120;-34
2023/01/20 10:07:28;;;;;;;;;;;;;;;30.96;60.28;100840.75;5078586;27;69774;-38
2023/01/20 10:10:11;;;;;;;;;;;;;;;30.92;60.45;100845.75;5078222;27;66914;-34
2023/01/20 10:12:47;;;;;;;;;;;;;;;30.89;60.85;100840.78;5060827;28;69998;-34
2023/01/20 10:15:25;;;;;;;;;;;;;;;30.87;60.98;100842.88;5080428;27;66631;-34
2023/01/20 10:17:55;;;;;;;;;;;;;;;30.87;60.68;100856.41;5078174;27;70349;-35
2023/01/20 10:20:27;;;;;;;;;;;;;;;30.85;60.35;100856.66;5066312;27;65337;-35
2023/01/20 10:23:23;;;;;;;;;;;;;;;30.84;60.46;100859.56;5074688;27;70161;-36
2023/01/20 10:26:12;;;;;;;;;;;;;;;30.86;60.20;100862.91;5062291;28;65500;-34
2023/01/20 10:28:57;;;;;;;;;;;;;;;30.86;60.32;100862.91;5079331;27;70036;-34
2023/01/20 10:31:30;;;;;;;;;;;;;;;30.86;60.35;100868.31;5078189;27;66176;-32
2023/01/20 10:34:11;;;;;;;;;;;;;;;30.85;60.02;100875.59;5079010;27;70389;-38
2023/01/20 10:36:43;;;;;;;;;;;;;;;30.88;60.40;100871.63;5076211;27;66668;-35
2023/01/20 10:39:32;;;;;;;;;;;;;;;30.87;60.79;100881.66;5085471;27;69429;-35
2023/01/20 10:42:04;;;;;;;;;;;;;;;30.88;60.78;100883.28;5079564;27;66269;-34
2023/01/20 10:44:37;;;;;;;;;;;;;;;30.90;61.07;100891.22;5086997;27;69705;-34
2023/01/20 10:47:14;;;;;;;;;;;;;;;30.91;61.33;100898.28;5082532;27;66601;-34
2023/01/20 10:50:06;;;;;;;;;;;;;;;30.91;61.46;100898.28;5074040;27;69950;-34
2023/01/20 10:52:36;;;;;;;;;;;;;;;30.88;62.10;100893.31;5076384;27;66212;-33
2023/01/20 10:55:23;;;;;;;;;;;;;;;30.89;62.18;100903.91;5072811;27;69781;-33
2023/01/20 10:58:06;;;;;;;;;;;;;;;30.89;62.52;100906.59;5073870;27;66004;-33
2023/01/20 11:00:38;;;;;;;;;;;;;;;30.88;62.99;100915.78;5077271;27;71148;-33
2023/01/20 11:03:13;;;;;;;;;;;;;;;30.90;63.76;100913.69;5076696;27;65481;-32
2023/01/20 11:05:45;;;;;;;;;;;;;;;30.90;64.12;100912.88;5076264;27;70430;-35
2023/01/20 11:08:17;;;;;;;;;;;;;;;30.91;64.21;100914.53;5056588;28;65712;-34
2023/01/20 11:10:50;;;;;;;;;;;;;;;30.94;64.20;100919.50;5064610;27;69748;-34
2023/01/20 11:13:20;;;;;;;;;;;;;;;30.93;64.82;100915.97;5076652;27;66888;-36
2023/01/20 11:15:58;;;;;;;;;;;;;;;30.96;65.79;100914.69;5080345;27;69608;-34
2023/01/20 11:18:30;;;;;;;;;;;;;;;30.96;66.38;100917.41;5061961;28;66308;-33
2023/01/20 11:21:08;;;;;;;;;;;;;;;31.00;66.89;100913.19;5078651;27;70264;-35
2023/01/20 11:23:41;;;;;;;;;;;;;;;30.99;67.25;100916.97;5083050;27;67083;-35
2023/01/20 11:26:23;;;;;;;;;;;;;;;30.99;67.21;100925.09;5080209;27;69551;-37
2023/01/20 11:29:16;;;;;;;;;;;;;;;30.97;68.14;100924.47;5083170;27;66618;-35
2023/01/20 11:31:48;;;;;;;;;;;;;;;30.99;67.70;100919.69;5050496;28;69752;-35
2023/01/20 11:34:25;;;;;;;;;;;;;;;30.97;68.16;100924.47;5082078;27;66187;-36
2023/01/20 11:37:05;;;;;;;;;;;;;;;30.97;68.26;100935.31;5056277;27;70360;-35
2023/01/20 11:39:43;;;;;;;;;;;;;;;30.97;68.45;100929.91;5080076;27;67612;-34
2023/01/20 11:42:21;;;;;;;;;;;;;;;30.98;68.55;100934.28;5061028;27;69183;-35
2023/01/20 11:44:54;;;;;;;;;;;;;;;30.99;68.61;100941.34;5070058;27;66826;-38
2023/01/20 11:47:30;;;;;;;;;;;;;;;30.98;68.50;100937.00;5062030;27;69603;-36
2023/01/20 11:50:04;;;;;;;;;;;;;;;30.97;68.88;100940.72;5056885;27;66085;-35
2023/01/20 11:52:36;;;;;;;;;;;;;;;30.96;68.64;100939.09;5080412;27;69741;-34
2023/01/20 11:55:08;;;;;;;;;;;;;;;30.96;68.66;100947.22;5076813;27;65601;-35
2023/01/20 11:57:53;;;;;;;;;;;;;;;30.94;68.41;100952.00;5086747;27;69866;-36
2023/01/20 12:00:30;;;;;;;;;;;;;;;30.93;68.71;100953.06;5079004;27;66689;-34
2023/01/20 12:03:03;;;;;;;;;;;;;;;30.93;68.77;100953.06;5082343;27;71316;-36
2023/01/20 12:05:43;;;;;;;;;;;;;;;30.94;68.60;100965.56;5079414;27;66555;-36
2023/01/20 12:08:22;;;;;;;;;;;;;;;30.92;68.96;100960.38;5080341;27;70553;-37
2023/01/20 12:10:55;;;;;;;;;;;;;;;30.91;69.02;100966.81;5081757;27;66941;-36
2023/01/20 12:16:32;;;;;;;;;;;;;;;30.92;69.32;100959.50;5080804;27;65629;-35
2023/01/20 12:19:09;;;;;;;;;;;;;;;30.93;69.21;100962.00;5075852;27;69232;-36
2023/01/20 12:21:46;;;;;;;;;;;;;;;30.95;69.21;100975.31;5085678;27;65723;-34
2023/01/20 12:25:07;;;;;;;;;;;;;;;30.95;69.57;100983.44;5068285;27;70583;-34
2023/01/20 12:27:56;;;;;;;;;;;;;;;30.97;70.24;100985.97;4998391;28;66405;-33
2023/01/20 12:30:39;;;;;;;;;;;;;;;30.97;70.48;100978.66;5079654;27;69818;-36
2023/01/20 12:33:17;;;;;;;;;;;;;;;30.97;70.70;100975.94;5079488;27;66557;-35
2023/01/20 12:36:07;;;;;;;;;;;;;;;30.97;71.02;100972.41;5083819;27;69779;-34
2023/01/20 12:38:49;;;;;;;;;;;;;;;30.97;70.86;100973.25;5071404;27;67051;-35
2023/01/20 12:41:29;;;;;;;;;;;;;;;30.97;71.02;100980.53;5078850;27;69683;-36
2023/01/20 12:44:18;;;;;;;;;;;;;;;30.96;71.30;100987.84;5090415;27;66673;-38
2023/01/20 12:46:51;;;;;;;;;;;;;;;30.96;70.88;100990.56;5058265;27;68771;-36
2023/01/20 12:49:24;;;;;;;;;;;;;;;30.99;71.78;100997.41;5083463;27;65610;-35
2023/01/20 12:52:04;;;;;;;;;;;;;;;30.97;71.09;101003.03;5076505;27;70334;-34
2023/01/20 12:54:47;;;;;;;;;;;;;;;30.96;71.17;101004.09;5083095;27;66220;-34
2023/01/20 12:57:36;;;;;;;;;;;;;;;30.94;71.99;101011.59;5083948;27;70210;-33
2023/01/20 13:00:22;;;;;;;;;;;;;;;30.68;68.18;101013.38;5065265;27;66190;-32
2023/01/20 13:02:59;;;;;;;;;;;;;;;30.58;67.41;101018.41;5083033;27;69799;-32
2023/01/20 13:05:32;;;;;;;;;;;;;;;30.55;64.60;101020.72;5063131;27;65763;-32
2023/01/20 13:08:15;;;;;;;;;;;;;;;30.64;63.31;101017.56;5082160;27;69928;-33
2023/01/20 13:10:48;;;;;;;;;;;;;;;30.65;61.74;101024.66;5077670;27;66845;-34
2023/01/20 13:13:27;;;;;;;;;;;;;;;30.59;60.26;101025.50;5037218;27;69805;-32
2023/01/20 13:16:03;;;;;;;;;;;;;;;30.55;60.13;101037.81;5079252;27;66602;-32
2023/01/20 13:18:48;;;;;;;;;;;;;;;30.50;59.97;101038.44;5077872;27;69367;-33
2023/01/20 13:21:20;;;;;;;;;;;;;;;30.42;58.23;101040.56;5080153;27;66631;-34
2023/01/20 13:23:51;;;;;;;;;;;;;;;30.36;57.42;101041.41;5077497;27;69714;-32
2023/01/20 13:26:21;;;;;;;;;;;;;;;30.32;55.76;101051.84;5078986;27;65337;-34